Time;durP1;ratioP1;P1;durP2;ratioP2;P2;SDS_P1;SDS_P2;PMS_P1;PMS_P2;Temp;Humidity;BMP_temperature;BMP_pressure;BME280_temperature;BME280_humidity;BME280_pressure;Samples;Min_cycle;Max_cycle;Signal;HPM_P1;HPM_P2
2021/07/02 00:00:23;;;;;;;9.55;6.38;;;;;;;-146.52;100.00;63329.72;1013886;29;20024;-82
2021/07/02 00:00:59;;;;;;;8.90;6.63;;;;;;;-146.52;100.00;63329.72;1010215;29;20010;-81
2021/07/02 00:01:37;;;;;;;11.32;7.03;;;;;;;-146.52;100.00;63329.72;1005901;29;20078;-82
2021/07/02 00:02:18;;;;;;;9.15;6.88;;;;;;;-146.52;100.00;63329.72;1009272;29;20064;-82
2021/07/02 00:03:00;;;;;;;9.20;6.32;;;;;;;-146.52;100.00;63329.72;1005553;29;20057;-83
2021/07/02 00:03:38;;;;;;;10.23;6.63;;;;;;;-146.52;100.00;63329.72;1009826;29;20021;-83
2021/07/02 00:04:22;;;;;;;10.27;6.72;;;;;;;-146.52;100.00;63329.72;1006160;29;20014;-82
2021/07/02 00:22:33;;;;;;;9.85;6.35;;;;;;;-146.52;100.00;63329.72;1014880;29;20073;-83
2021/07/02 00:23:07;;;;;;;10.60;6.63;;;;;;;-146.52;100.00;63329.72;1017439;29;20052;-82
2021/07/02 00:23:44;;;;;;;7.82;6.10;;;;;;;-146.52;100.00;63329.72;1009700;29;20044;-82
2021/07/02 00:24:20;;;;;;;9.90;6.18;;;;;;;-146.52;100.00;63329.72;1005834;29;20026;-82
2021/07/02 00:24:55;;;;;;;9.98;6.10;;;;;;;-146.52;100.00;63329.72;1009634;29;20048;-82
2021/07/02 00:25:30;;;;;;;11.57;6.32;;;;;;;-146.52;100.00;63329.72;1009856;29;20013;-82
2021/07/02 00:26:10;;;;;;;10.20;6.10;;;;;;;-146.52;100.00;63329.72;1009837;29;20029;-82
2021/07/02 00:26:47;;;;;;;9.02;6.30;;;;;;;-146.52;100.00;63329.72;1013625;29;20443;-82
2021/07/02 00:27:23;;;;;;;9.95;6.88;;;;;;;-146.52;100.00;63329.72;1009882;29;20038;-83
2021/07/02 00:28:03;;;;;;;10.43;6.97;;;;;;;-146.52;100.00;63329.72;1013633;29;20017;-82
2021/07/02 00:28:39;;;;;;;11.48;6.68;;;;;;;-146.52;100.00;63329.72;1006177;29;20026;-82
2021/07/02 00:29:17;;;;;;;9.02;5.65;;;;;;;-146.52;100.00;63329.72;1006273;29;20034;-82
2021/07/02 00:29:56;;;;;;;9.55;6.13;;;;;;;-146.52;100.00;63329.72;1006186;29;20055;-83
2021/07/02 00:30:37;;;;;;;9.43;6.13;;;;;;;-146.52;100.00;63329.72;1006277;29;20026;-82
2021/07/02 01:27:54;;;;;;;10.23;6.70;;;;;;;-146.52;100.00;63329.72;383792;23;20382;-83
2021/07/02 01:28:35;;;;;;;18.35;7.13;;;;;;;-146.52;100.00;63329.72;1020825;29;20051;-83
2021/07/02 01:29:07;;;;;;;10.35;6.53;;;;;;;-146.52;100.00;63329.72;1012467;29;20043;-83
2021/07/02 01:29:38;;;;;;;8.30;6.35;;;;;;;-146.52;100.00;63329.72;1013141;29;20025;-83
2021/07/02 01:30:13;;;;;;;8.43;6.35;;;;;;;-146.52;100.00;63329.72;1005280;29;20031;-86
2021/07/02 01:30:48;;;;;;;9.48;6.88;;;;;;;-146.52;100.00;63329.72;1009383;29;20051;-83
2021/07/02 01:31:18;;;;;;;8.07;6.53;;;;;;;-146.52;100.00;63329.72;1005474;29;20034;-83
2021/07/02 01:31:49;;;;;;;8.25;6.65;;;;;;;-146.52;100.00;63329.72;1005695;29;20018;-86
2021/07/02 01:32:20;;;;;;;8.70;6.57;;;;;;;-146.52;100.00;63329.72;1012786;29;20411;-83
2021/07/02 01:32:51;;;;;;;8.23;6.45;;;;;;;-146.52;100.00;63329.72;1005116;29;20022;-84
2021/07/02 01:33:21;;;;;;;9.65;6.57;;;;;;;-146.52;100.00;63329.72;1009229;29;20026;-83
2021/07/02 01:33:52;;;;;;;11.45;7.15;;;;;;;-146.52;100.00;63329.72;1013389;29;20077;-84
2021/07/02 01:34:23;;;;;;;8.90;6.72;;;;;;;-146.52;100.00;63329.72;1005476;29;20093;-84
2021/07/02 01:34:54;;;;;;;9.52;6.55;;;;;;;-146.52;100.00;63329.72;1013384;29;20021;-85
2021/07/02 01:35:25;;;;;;;9.88;7.20;;;;;;;-146.52;100.00;63329.72;1009153;29;20024;-83
2021/07/02 01:35:59;;;;;;;8.75;7.00;;;;;;;-146.52;100.00;63329.72;1005470;29;20014;-86
2021/07/02 01:36:29;;;;;;;10.27;6.65;;;;;;;-146.52;100.00;63329.72;1001090;29;20052;-81
2021/07/02 01:37:00;;;;;;;10.82;7.85;;;;;;;-146.52;100.00;63329.72;1001034;29;20031;-81
2021/07/02 01:37:31;;;;;;;10.82;7.10;;;;;;;-146.52;100.00;63329.72;1008636;29;20033;-83
2021/07/02 01:38:02;;;;;;;11.85;7.60;;;;;;;-146.52;100.00;63329.72;1004652;29;20097;-82
2021/07/02 01:38:33;;;;;;;10.20;6.55;;;;;;;-146.52;100.00;63329.72;1005134;29;20030;-83
2021/07/02 01:39:04;;;;;;;10.15;6.72;;;;;;;-146.52;100.00;63329.72;1009033;29;20030;-83
2021/07/02 01:39:37;;;;;;;10.45;7.20;;;;;;;-146.52;100.00;63329.72;1012954;29;20017;-84
2021/07/02 01:40:08;;;;;;;12.40;7.00;;;;;;;-146.52;100.00;63329.72;1007374;29;20028;-84
2021/07/02 01:40:39;;;;;;;8.25;6.32;;;;;;;-146.52;100.00;63329.72;1005357;29;20073;-84
2021/07/02 01:41:09;;;;;;;10.00;6.90;;;;;;;-146.52;100.00;63329.72;999970;29;20031;-84
2021/07/02 01:41:40;;;;;;;9.07;5.65;;;;;;;-146.52;100.00;63329.72;1001598;29;20125;-83
2021/07/02 01:42:11;;;;;;;13.07;7.55;;;;;;;-146.52;100.00;63329.72;1003727;29;20033;-82
2021/07/02 01:42:42;;;;;;;8.43;6.60;;;;;;;-146.52;100.00;63329.72;1008952;29;20022;-84
2021/07/02 01:43:13;;;;;;;10.23;7.25;;;;;;;-146.52;100.00;63329.72;1008698;29;20028;-83
2021/07/02 01:44:18;;;;;;;8.25;6.45;;;;;;;-146.52;100.00;63329.72;997199;29;20117;-84
2021/07/02 01:45:43;;;;;;;9.70;6.55;;;;;;;-146.52;100.00;63329.72;999616;29;20034;-84
2021/07/02 01:46:31;;;;;;;11.38;6.68;;;;;;;-146.52;100.00;63329.72;1019284;29;20016;-82
2021/07/02 01:47:40;;;;;;;11.60;7.65;;;;;;;-146.52;100.00;63329.72;1016187;29;20044;-83
2021/07/02 01:48:38;;;;;;;11.65;7.18;;;;;;;-146.52;100.00;63329.72;1012132;29;20070;-83
2021/07/02 01:49:09;;;;;;;8.98;6.45;;;;;;;-146.52;100.00;63329.72;1008626;29;20042;-82
2021/07/02 01:49:39;;;;;;;8.65;6.90;;;;;;;-146.52;100.00;63329.72;1004891;29;20038;-82
2021/07/02 01:50:10;;;;;;;9.80;6.43;;;;;;;-146.52;100.00;63329.72;1007373;29;20033;-82
2021/07/02 01:50:42;;;;;;;10.15;7.15;;;;;;;-146.52;100.00;63329.72;1002681;29;20090;-82
2021/07/02 01:51:15;;;;;;;11.05;7.47;;;;;;;-146.52;100.00;63329.72;998612;29;20030;-82
2021/07/02 01:51:46;;;;;;;10.10;7.32;;;;;;;-146.52;100.00;63329.72;1006060;29;20049;-82
2021/07/02 01:52:18;;;;;;;10.55;6.95;;;;;;;-146.52;100.00;63329.72;1010084;29;20085;-82
2021/07/02 01:52:53;;;;;;;10.45;7.28;;;;;;;-146.52;100.00;63329.72;1006391;29;20052;-82
2021/07/02 01:53:35;;;;;;;12.98;7.82;;;;;;;-146.52;100.00;63329.72;1006561;29;20061;-82
2021/07/02 01:54:17;;;;;;;10.93;7.40;;;;;;;-146.52;100.00;63329.72;1006184;29;20048;-82
2021/07/02 01:54:50;;;;;;;9.80;7.53;;;;;;;-146.52;100.00;63329.72;1006390;29;20088;-82
2021/07/02 01:55:23;;;;;;;12.10;7.63;;;;;;;-146.52;100.00;63329.72;1006528;29;20033;-82
2021/07/02 01:55:55;;;;;;;9.15;6.70;;;;;;;-146.52;100.00;63329.72;1010185;29;20060;-82
2021/07/02 01:56:33;;;;;;;9.95;6.95;;;;;;;-146.52;100.00;63329.72;1006702;29;20036;-82
2021/07/02 01:57:42;;;;;;;9.10;7.03;;;;;;;-146.52;100.00;63329.72;1010059;29;20037;-82
2021/07/02 01:59:09;;;;;;;12.55;7.57;;;;;;;-146.52;100.00;63329.72;1012976;29;20111;-82
2021/07/02 02:00:00;;;;;;;9.98;6.60;;;;;;;-146.52;100.00;63329.72;1010625;29;20029;-82
2021/07/02 02:00:38;;;;;;;10.98;7.35;;;;;;;-146.52;100.00;63329.72;998779;29;20034;-82
2021/07/02 02:01:14;;;;;;;10.23;7.30;;;;;;;-146.52;100.00;63329.72;998885;29;20038;-82
2021/07/02 02:01:47;;;;;;;10.23;7.13;;;;;;;-146.52;100.00;63329.72;1002848;29;20033;-82
2021/07/02 02:02:22;;;;;;;12.20;7.10;;;;;;;-146.52;100.00;63329.72;1002436;29;20109;-82
2021/07/02 02:02:57;;;;;;;9.32;6.55;;;;;;;-146.52;100.00;63329.72;998996;29;20053;-82
2021/07/02 02:03:28;;;;;;;12.35;7.65;;;;;;;-146.52;100.00;63329.72;1007743;29;20026;-83
2021/07/02 02:04:00;;;;;;;9.00;6.90;;;;;;;-146.52;100.00;63329.72;1011813;29;20033;-83
2021/07/02 02:04:31;;;;;;;13.18;7.43;;;;;;;-146.52;100.00;63329.72;1004489;29;20026;-83
2021/07/02 02:05:02;;;;;;;12.70;6.88;;;;;;;-146.52;100.00;63329.72;1008041;29;20038;-83
2021/07/02 02:05:33;;;;;;;9.68;7.15;;;;;;;-146.52;100.00;63329.72;1004280;29;20037;-83
2021/07/02 02:06:04;;;;;;;10.05;7.10;;;;;;;-146.52;100.00;63329.72;1004233;29;20504;-83
2021/07/02 02:06:34;;;;;;;11.57;7.20;;;;;;;-146.52;100.00;63329.72;1003958;29;20030;-83
2021/07/02 02:07:05;;;;;;;10.10;6.90;;;;;;;-146.52;100.00;63329.72;1004258;29;20026;-83
2021/07/02 02:07:36;;;;;;;9.43;7.10;;;;;;;-146.52;100.00;63329.72;1011662;29;20445;-83
2021/07/02 02:08:07;;;;;;;9.95;7.07;;;;;;;-146.52;100.00;63329.72;1000252;29;20038;-82
2021/07/02 02:08:37;;;;;;;11.18;7.20;;;;;;;-146.52;100.00;63329.72;1011915;29;20028;-82
2021/07/02 02:09:08;;;;;;;9.48;7.10;;;;;;;-146.52;100.00;63329.72;1007866;29;20025;-82
2021/07/02 02:09:38;;;;;;;9.98;7.43;;;;;;;-146.52;100.00;63329.72;1008146;29;20033;-83
2021/07/02 02:10:09;;;;;;;10.05;7.35;;;;;;;-146.52;100.00;63329.72;1004298;29;20098;-82
2021/07/02 02:10:40;;;;;;;11.05;7.28;;;;;;;-146.52;100.00;63329.72;1004269;29;20030;-83
2021/07/02 02:11:11;;;;;;;11.25;7.43;;;;;;;-146.52;100.00;63329.72;1007762;29;20110;-83
2021/07/02 02:11:56;;;;;;;9.90;7.63;;;;;;;-146.52;100.00;63329.72;1007441;29;20544;-83
2021/07/02 02:16:09;;;;;;;11.20;7.15;;;;;;;-146.52;100.00;63329.72;1015855;29;20044;-83
2021/07/02 02:16:41;;;;;;;14.30;6.82;;;;;;;-146.52;100.00;63329.72;1011251;29;20499;-83
2021/07/02 02:17:12;;;;;;;10.05;7.03;;;;;;;-146.52;100.00;63329.72;1003826;29;20028;-83
2021/07/02 02:17:43;;;;;;;11.27;7.55;;;;;;;-146.52;100.00;63329.72;1007620;29;20055;-83
2021/07/02 02:18:14;;;;;;;9.75;7.35;;;;;;;-146.52;100.00;63329.72;1007775;29;20029;-83
2021/07/02 02:18:44;;;;;;;12.98;7.88;;;;;;;-146.52;100.00;63329.72;1007478;29;20534;-83
2021/07/02 02:19:15;;;;;;;9.80;7.60;;;;;;;-146.52;100.00;63329.72;1004121;29;20034;-83
2021/07/02 02:19:46;;;;;;;11.30;7.63;;;;;;;-146.52;100.00;63329.72;1005118;29;20040;-87
2021/07/02 02:20:16;;;;;;;11.40;7.35;;;;;;;-146.52;100.00;63329.72;1009582;29;20040;-83
2021/07/02 02:20:47;;;;;;;10.98;7.80;;;;;;;-146.52;100.00;63329.72;1009662;29;20017;-85
2021/07/02 02:21:18;;;;;;;10.30;7.47;;;;;;;-146.52;100.00;63329.72;1013328;29;20033;-82
2021/07/02 02:21:49;;;;;;;10.57;8.15;;;;;;;-146.52;100.00;63329.72;1005798;29;20035;-83
2021/07/02 02:22:20;;;;;;;13.10;7.93;;;;;;;-146.52;100.00;63329.72;1009238;29;20018;-82
2021/07/02 02:22:50;;;;;;;10.50;7.57;;;;;;;-146.52;100.00;63329.72;1011637;29;20029;-82
2021/07/02 02:23:21;;;;;;;12.75;8.02;;;;;;;-146.52;100.00;63329.72;1007592;29;20029;-82
2021/07/02 02:23:52;;;;;;;7.97;6.25;;;;;;;-146.52;100.00;63329.72;1011242;29;20029;-82
2021/07/02 02:24:22;;;;;;;11.00;7.50;;;;;;;-146.52;100.00;63329.72;1011145;29;20061;-82
2021/07/02 02:24:54;;;;;;;11.45;7.25;;;;;;;-146.52;100.00;63329.72;1007095;29;20026;-82
2021/07/02 02:25:25;;;;;;;10.07;7.57;;;;;;;-146.52;100.00;63329.72;1002760;29;20026;-81
2021/07/02 02:25:56;;;;;;;10.48;8.13;;;;;;;-146.52;100.00;63329.72;1010518;29;20025;-82
2021/07/02 02:26:27;;;;;;;10.30;7.80;;;;;;;-146.52;100.00;63329.72;1013652;29;20024;-82
2021/07/02 02:26:58;;;;;;;11.93;7.45;;;;;;;-146.52;100.00;63329.72;1002443;29;20026;-82
2021/07/02 02:27:31;;;;;;;9.93;7.15;;;;;;;-146.52;100.00;63329.72;1009784;29;20060;-82
2021/07/02 02:28:04;;;;;;;10.48;7.25;;;;;;;-146.52;100.00;63329.72;1005826;29;20449;-82
2021/07/02 02:29:14;;;;;;;11.52;7.85;;;;;;;-146.52;100.00;63329.72;1013655;29;20028;-82
2021/07/02 02:30:11;;;;;;;11.05;7.07;;;;;;;-146.52;100.00;63329.72;1002946;29;20058;-82
2021/07/02 02:31:06;;;;;;;10.98;7.38;;;;;;;-146.52;100.00;63329.72;998024;29;20034;-82
2021/07/02 02:31:45;;;;;;;;;;;;;;;-146.52;100.00;63329.72;994318;29;20047;-82
2021/07/02 02:32:29;;;;;;;12.90;7.32;;;;;;;-146.52;100.00;63329.72;1004055;29;19912;-82
2021/07/02 02:33:26;;;;;;;14.07;7.70;;;;;;;-146.52;100.00;63329.72;1013004;29;20085;-82
2021/07/02 02:34:10;;;;;;;11.13;7.88;;;;;;;-146.52;100.00;63329.72;1013980;29;20028;-82
2021/07/02 02:34:54;;;;;;;12.82;7.78;;;;;;;-146.52;100.00;63329.72;1001824;29;20074;-81
2021/07/02 02:35:41;;;;;;;9.60;6.95;;;;;;;-146.52;100.00;63329.72;1001965;29;20042;-82
2021/07/02 02:36:20;;;;;;;9.25;7.15;;;;;;;-146.52;100.00;63329.72;1009680;29;20033;-82
2021/07/02 02:37:22;;;;;;;11.85;7.75;;;;;;;-146.52;100.00;63329.72;1002013;29;20058;-82
2021/07/02 02:37:58;;;;;;;15.65;7.28;;;;;;;-146.52;100.00;63329.72;1006021;29;20112;-82
2021/07/02 02:38:31;;;;;;;9.80;7.38;;;;;;;-146.52;100.00;63329.72;1006529;29;20101;-82
2021/07/02 02:39:17;;;;;;;10.38;7.68;;;;;;;-146.52;100.00;63329.72;1006432;29;20049;-81
2021/07/02 02:39:50;;;;;;;9.00;7.13;;;;;;;-146.52;100.00;63329.72;1006354;29;20041;-82
2021/07/02 02:40:21;;;;;;;11.90;7.50;;;;;;;-146.52;100.00;63329.72;1008433;29;20444;-82
2021/07/02 02:40:52;;;;;;;10.65;7.63;;;;;;;-146.52;100.00;63329.72;1012073;29;20104;-82
2021/07/02 02:41:23;;;;;;;12.20;7.90;;;;;;;-146.52;100.00;63329.72;1008413;29;20034;-82
2021/07/02 02:41:54;;;;;;;11.23;7.80;;;;;;;-146.52;100.00;63329.72;1008129;29;20029;-82
2021/07/02 02:42:25;;;;;;;9.70;6.93;;;;;;;-146.52;100.00;63329.72;1004274;29;20093;-81
2021/07/02 02:42:56;;;;;;;9.15;7.07;;;;;;;-146.52;100.00;63329.72;1003978;29;20512;-81
2021/07/02 02:43:26;;;;;;;9.32;6.47;;;;;;;-146.52;100.00;63329.72;1000403;29;20026;-81
2021/07/02 02:43:57;;;;;;;11.82;6.97;;;;;;;-146.52;100.00;63329.72;1003936;29;20026;-82
2021/07/02 02:46:11;;;;;;;9.38;7.20;;;;;;;-146.52;100.00;63329.72;1008551;29;20044;-81
2021/07/02 02:46:41;;;;;;;11.27;8.00;;;;;;;-146.52;100.00;63329.72;998119;29;20030;-82
2021/07/02 02:47:12;;;;;;;11.77;7.40;;;;;;;-146.52;100.00;63329.72;1003502;29;20029;-81
2021/07/02 02:47:43;;;;;;;10.65;7.88;;;;;;;-146.52;100.00;63329.72;1007531;29;20036;-81
2021/07/02 02:48:13;;;;;;;12.45;8.13;;;;;;;-146.52;100.00;63329.72;999877;29;20041;-81
2021/07/02 02:48:44;;;;;;;10.18;7.50;;;;;;;-146.52;100.00;63329.72;1007693;29;20021;-82
2021/07/02 02:49:15;;;;;;;12.95;7.93;;;;;;;-146.52;100.00;63329.72;1007150;29;20033;-83
2021/07/02 02:58:23;;;;;;;10.57;7.30;;;;;;;-146.52;100.00;63329.72;1009266;29;20030;-82
2021/07/02 03:21:32;;;;;;;12.00;7.97;;;;;;;-146.52;100.00;63329.72;1008098;29;20042;-83
2021/07/02 03:22:03;;;;;;;12.45;7.50;;;;;;;-146.52;100.00;63329.72;1004393;29;20508;-82
2021/07/02 03:22:35;;;;;;;10.10;7.63;;;;;;;-146.52;100.00;63329.72;1000631;29;20026;-83
2021/07/02 03:23:05;;;;;;;10.70;7.60;;;;;;;-146.52;100.00;63329.72;996995;29;20098;-82
2021/07/02 03:23:36;;;;;;;14.32;8.45;;;;;;;-146.52;100.00;63329.72;997622;29;20111;-82
2021/07/02 03:24:07;;;;;;;11.75;8.25;;;;;;;-146.52;100.00;63329.72;994130;30;20030;-82
2021/07/02 03:24:38;;;;;;;12.15;8.10;;;;;;;-146.52;100.00;63329.72;997683;29;20011;-83
2021/07/02 03:25:09;;;;;;;11.13;8.38;;;;;;;-146.52;100.00;63329.72;1005092;29;20030;-83
2021/07/02 03:25:40;;;;;;;11.50;8.68;;;;;;;-146.52;100.00;63329.72;1005094;29;20102;-83
2021/07/02 03:26:10;;;;;;;10.70;8.48;;;;;;;-146.52;100.00;63329.72;1000716;29;20034;-83
2021/07/02 03:26:41;;;;;;;10.85;8.38;;;;;;;-146.52;100.00;63329.72;1001145;29;20015;-83
2021/07/02 03:27:12;;;;;;;14.30;7.80;;;;;;;-146.52;100.00;63329.72;1004688;29;20030;-83
2021/07/02 03:27:44;;;;;;;12.48;8.32;;;;;;;-146.52;100.00;63329.72;1000576;29;20018;-82
2021/07/02 03:35:36;;;;;;;11.45;8.38;;;;;;;-146.52;100.00;63329.72;1090144;23;20455;-82
2021/07/02 03:48:23;;;;;;;11.77;8.18;;;;;;;-146.52;100.00;63329.72;1021534;29;20043;-82
2021/07/02 03:48:54;;;;;;;13.10;8.32;;;;;;;-146.52;100.00;63329.72;1015756;29;20021;-83
2021/07/02 03:49:25;;;;;;;13.50;8.10;;;;;;;-146.52;100.00;63329.72;1008662;29;20022;-82
2021/07/02 03:49:55;;;;;;;12.20;8.32;;;;;;;-146.52;100.00;63329.72;1005172;29;20018;-84
2021/07/02 03:50:27;;;;;;;13.05;8.68;;;;;;;-146.52;100.00;63329.72;1013011;29;20053;-84
2021/07/02 03:50:58;;;;;;;11.95;8.30;;;;;;;-146.52;100.00;63329.72;1004699;29;20050;-84
2021/07/02 03:51:29;;;;;;;12.13;8.10;;;;;;;-146.52;100.00;63329.72;1008472;29;20045;-84
2021/07/02 03:51:59;;;;;;;11.70;7.95;;;;;;;-146.52;100.00;63329.72;1012225;29;20045;-82
2021/07/02 03:52:31;;;;;;;11.73;8.57;;;;;;;-146.52;100.00;63329.72;1004475;29;20026;-84
2021/07/02 03:53:02;;;;;;;11.38;8.25;;;;;;;-146.52;100.00;63329.72;1007904;29;20026;-84
2021/07/02 03:53:42;;;;;;;10.45;7.88;;;;;;;-146.52;100.00;63329.72;1015448;29;20025;-84
2021/07/02 03:58:06;;;;;;;12.23;8.10;;;;;;;-146.52;100.00;63329.72;1015470;29;20047;-83
2021/07/02 03:58:38;;;;;;;12.73;8.93;;;;;;;-146.52;100.00;63329.72;1008414;29;20069;-83
2021/07/02 03:59:08;;;;;;;13.98;8.50;;;;;;;-146.52;100.00;63329.72;1012523;29;20028;-84
2021/07/02 03:59:49;;;;;;;12.00;8.23;;;;;;;-146.52;100.00;63329.72;1016258;29;20028;-83
2021/07/02 04:00:20;;;;;;;10.70;8.00;;;;;;;-146.52;100.00;63329.72;1008651;29;20097;-84
2021/07/02 04:00:50;;;;;;;10.85;8.02;;;;;;;-146.52;100.00;63329.72;1012584;29;20029;-82
2021/07/02 04:01:21;;;;;;;12.65;8.27;;;;;;;-146.52;100.00;63329.72;1008895;29;20036;-82
2021/07/02 04:01:52;;;;;;;11.82;8.27;;;;;;;-146.52;100.00;63329.72;1016381;29;20060;-82
2021/07/02 04:02:23;;;;;;;12.68;8.35;;;;;;;-146.52;100.00;63329.72;1012078;29;20033;-82
2021/07/02 04:02:53;;;;;;;11.00;7.80;;;;;;;-146.52;100.00;63329.72;1012317;29;20029;-82
2021/07/02 04:03:24;;;;;;;10.88;7.45;;;;;;;-146.52;100.00;63329.72;1016809;29;20028;-82
2021/07/02 04:03:55;;;;;;;13.50;9.18;;;;;;;-146.52;100.00;63329.72;1016540;29;20032;-82
2021/07/02 04:04:25;;;;;;;11.23;8.35;;;;;;;-146.52;100.00;63329.72;1004675;29;20100;-83
2021/07/02 04:04:56;;;;;;;11.32;8.18;;;;;;;-146.52;100.00;63329.72;1012199;29;20036;-82
2021/07/02 04:05:27;;;;;;;10.80;7.85;;;;;;;-146.52;100.00;63329.72;1004405;29;20033;-82
2021/07/02 04:05:58;;;;;;;12.35;8.85;;;;;;;-146.52;100.00;63329.72;1012412;29;20021;-82
2021/07/02 04:06:29;;;;;;;10.13;7.93;;;;;;;-146.52;100.00;63329.72;1008537;29;20025;-82
2021/07/02 04:07:00;;;;;;;11.07;7.95;;;;;;;-146.52;100.00;63329.72;1016728;29;20082;-82
2021/07/02 04:07:30;;;;;;;13.70;8.50;;;;;;;-146.52;100.00;63329.72;1009090;29;20030;-82
2021/07/02 04:08:01;;;;;;;10.10;8.30;;;;;;;-146.52;100.00;63329.72;1024595;29;20095;-84
2021/07/02 04:08:32;;;;;;;14.60;7.97;;;;;;;-146.52;100.00;63329.72;999273;29;20059;-81
2021/07/02 04:09:02;;;;;;;10.95;7.97;;;;;;;-146.52;100.00;63329.72;1015124;29;20025;-82
2021/07/02 04:09:33;;;;;;;12.07;8.07;;;;;;;-146.52;100.00;63329.72;1006701;29;20033;-82
2021/07/02 04:10:05;;;;;;;11.35;9.18;;;;;;;-146.52;100.00;63329.72;1010019;29;20025;-82
2021/07/02 04:10:36;;;;;;;14.30;8.93;;;;;;;-146.52;100.00;63329.72;1001791;29;20073;-81
2021/07/02 04:11:08;;;;;;;10.85;8.77;;;;;;;-146.52;100.00;63329.72;1013142;29;20059;-82
2021/07/02 04:11:40;;;;;;;11.38;8.73;;;;;;;-146.52;100.00;63329.72;1005932;29;20029;-82
2021/07/02 04:12:13;;;;;;;13.93;8.80;;;;;;;-146.52;100.00;63329.72;998053;29;20188;-81
2021/07/02 04:12:43;;;;;;;13.75;8.18;;;;;;;-146.52;100.00;63329.72;1006504;29;20030;-82
2021/07/02 04:13:15;;;;;;;15.60;8.43;;;;;;;-146.52;100.00;63329.72;1008251;29;20026;-82
2021/07/02 04:13:46;;;;;;;11.88;8.65;;;;;;;-146.52;100.00;63329.72;1004149;29;20026;-82
2021/07/02 04:14:17;;;;;;;12.82;8.88;;;;;;;-146.52;100.00;63329.72;1015865;29;20025;-82
2021/07/02 04:14:49;;;;;;;12.48;8.57;;;;;;;-146.52;100.00;63329.72;1009263;29;20013;-83
2021/07/02 04:30:51;;;;;;;10.93;7.70;;;;;;;-146.52;100.00;63329.72;1034413;23;20493;-83
2021/07/02 04:31:21;;;;;;;12.05;7.82;;;;;;;-146.52;100.00;63329.72;1013213;29;20069;-82
2021/07/02 04:31:52;;;;;;;12.60;7.85;;;;;;;-146.52;100.00;63329.72;1005747;29;20055;-82
2021/07/02 04:32:23;;;;;;;15.48;8.98;;;;;;;-146.52;100.00;63329.72;1001615;29;20026;-82
2021/07/02 04:32:53;;;;;;;16.95;9.25;;;;;;;-146.52;100.00;63329.72;1009106;29;20037;-82
2021/07/02 04:33:24;;;;;;;13.27;8.85;;;;;;;-146.52;100.00;63329.72;1003722;29;20025;-82
2021/07/02 04:33:55;;;;;;;15.80;9.73;;;;;;;-146.52;100.00;63329.72;1006260;29;20037;-82
2021/07/02 04:34:26;;;;;;;12.27;8.38;;;;;;;-146.52;100.00;63329.72;1007399;29;20464;-82
2021/07/02 04:34:57;;;;;;;14.70;9.52;;;;;;;-146.52;100.00;63329.72;1003425;29;20396;-82
2021/07/02 04:35:28;;;;;;;13.35;9.25;;;;;;;-146.52;100.00;63329.72;999406;29;20031;-84
2021/07/02 04:35:59;;;;;;;13.38;9.23;;;;;;;-146.52;100.00;63329.72;999718;29;20041;-83
2021/07/02 04:36:30;;;;;;;14.20;8.60;;;;;;;-146.52;100.00;63329.72;1006783;29;20086;-81
2021/07/02 04:37:01;;;;;;;13.27;9.15;;;;;;;-146.52;100.00;63329.72;1006711;29;20100;-82
2021/07/02 04:37:32;;;;;;;16.83;10.82;;;;;;;-146.52;100.00;63329.72;999296;29;20034;-82
2021/07/02 04:38:05;;;;;;;14.65;9.30;;;;;;;-146.52;100.00;63329.72;1002663;29;20021;-82
2021/07/02 04:38:37;;;;;;;11.65;8.38;;;;;;;-146.52;100.00;63329.72;1002823;29;20577;-82
2021/07/02 04:39:10;;;;;;;15.82;9.80;;;;;;;-146.52;100.00;63329.72;1003665;29;20030;-81
2021/07/02 04:39:42;;;;;;;15.80;9.93;;;;;;;-146.52;100.00;63329.72;1002978;29;20030;-82
2021/07/02 04:40:14;;;;;;;11.00;8.70;;;;;;;-146.52;100.00;63329.72;1002859;29;20413;-81
2021/07/02 04:40:48;;;;;;;12.20;8.80;;;;;;;-146.52;100.00;63329.72;995499;29;20034;-82
2021/07/02 04:41:20;;;;;;;13.07;9.52;;;;;;;-146.52;100.00;63329.72;998922;29;20082;-81
2021/07/02 04:41:51;;;;;;;10.85;8.50;;;;;;;-146.52;100.00;63329.72;1006630;29;20035;-82
2021/07/02 04:42:24;;;;;;;12.85;8.88;;;;;;;-146.52;100.00;63329.72;995911;29;20033;-82
2021/07/02 04:42:55;;;;;;;12.60;8.70;;;;;;;-146.52;100.00;63329.72;1011749;29;20126;-82
2021/07/02 04:43:27;;;;;;;15.57;8.48;;;;;;;-146.52;100.00;63329.72;1007016;29;20036;-82
2021/07/02 04:44:36;;;;;;;11.75;8.40;;;;;;;-146.52;100.00;63329.72;1006620;29;20029;-82
2021/07/02 04:47:03;;;;;;;11.30;8.18;;;;;;;-146.52;100.00;63329.72;1010667;29;20400;-82
2021/07/02 04:47:33;;;;;;;11.52;7.75;;;;;;;-146.52;100.00;63329.72;1007762;29;20032;-82
2021/07/02 04:48:04;;;;;;;11.95;8.57;;;;;;;-146.52;100.00;63329.72;1007323;29;20044;-82
2021/07/02 04:48:35;;;;;;;11.55;8.40;;;;;;;-146.52;100.00;63329.72;1007602;29;20093;-82
2021/07/02 04:49:05;;;;;;;11.63;8.50;;;;;;;-146.52;100.00;63329.72;999868;29;20157;-82
2021/07/02 04:49:36;;;;;;;13.93;8.75;;;;;;;-146.52;100.00;63329.72;1003505;29;20025;-82
2021/07/02 04:50:08;;;;;;;11.75;7.10;;;;;;;-146.52;100.00;63329.72;1008012;29;20029;-83
2021/07/02 04:50:38;;;;;;;10.50;7.90;;;;;;;-146.52;100.00;63329.72;1008521;29;20116;-83
2021/07/02 04:51:09;;;;;;;12.20;8.23;;;;;;;-146.52;100.00;63329.72;1000893;29;20374;-83
2021/07/02 04:51:40;;;;;;;13.00;8.13;;;;;;;-146.52;100.00;63329.72;1004076;29;20029;-82
2021/07/02 04:52:10;;;;;;;11.52;7.80;;;;;;;-146.52;100.00;63329.72;1004433;29;20030;-82
2021/07/02 04:52:41;;;;;;;9.70;7.90;;;;;;;-146.52;100.00;63329.72;1004402;29;20101;-82
2021/07/02 04:53:11;;;;;;;9.38;7.90;;;;;;;-146.52;100.00;63329.72;1004516;29;20022;-82
2021/07/02 04:53:43;;;;;;;10.85;8.35;;;;;;;-146.52;100.00;63329.72;996293;29;20083;-82
2021/07/02 04:54:14;;;;;;;12.50;8.73;;;;;;;-146.52;100.00;63329.72;1003655;29;20116;-83
2021/07/02 04:54:45;;;;;;;11.13;7.63;;;;;;;-146.52;100.00;63329.72;1007701;29;20025;-83
2021/07/02 04:55:15;;;;;;;12.18;8.30;;;;;;;-146.52;100.00;63329.72;1007842;29;20025;-82
2021/07/02 04:55:46;;;;;;;13.18;8.15;;;;;;;-146.52;100.00;63329.72;1004499;29;20030;-83
2021/07/02 04:56:18;;;;;;;12.43;7.80;;;;;;;-146.52;100.00;63329.72;1005206;29;20038;-82
2021/07/02 04:56:51;;;;;;;12.90;8.63;;;;;;;-146.52;100.00;63329.72;996898;29;20035;-80
2021/07/02 04:57:52;;;;;;;9.98;7.72;;;;;;;-146.52;100.00;63329.72;1003694;29;20129;-81
2021/07/02 04:58:25;;;;;;;12.52;7.95;;;;;;;-146.52;100.00;63329.72;1003446;29;20038;-80
2021/07/02 04:58:58;;;;;;;10.95;7.82;;;;;;;-146.52;100.00;63329.72;1005871;29;20063;-81
2021/07/02 04:59:33;;;;;;;11.30;7.47;;;;;;;-146.52;100.00;63329.72;1003202;29;20042;-82
2021/07/02 05:00:06;;;;;;;10.15;8.30;;;;;;;-146.52;100.00;63329.72;1006696;29;20026;-81
2021/07/02 05:00:38;;;;;;;10.02;8.15;;;;;;;-146.52;100.00;63329.72;1003479;29;20042;-81
2021/07/02 05:01:12;;;;;;;13.02;8.00;;;;;;;-146.52;100.00;63329.72;1007087;29;20037;-81
2021/07/02 05:01:44;;;;;;;10.82;8.45;;;;;;;-146.52;100.00;63329.72;1003355;29;20037;-81
2021/07/02 05:02:15;;;;;;;11.52;8.48;;;;;;;-146.52;100.00;63329.72;996132;29;20034;-81
2021/07/02 05:02:48;;;;;;;12.63;7.88;;;;;;;-146.52;100.00;63329.72;1003017;29;20028;-81
2021/07/02 05:03:58;;;;;;;12.13;8.68;;;;;;;-146.52;100.00;63329.72;1006775;29;20523;-81
2021/07/02 05:04:59;;;;;;;11.27;8.20;;;;;;;-146.52;100.00;63329.72;1012516;29;20029;-81
2021/07/02 05:06:10;;;;;;;11.43;8.00;;;;;;;-146.52;100.00;63329.72;1017893;29;20526;-81
2021/07/02 05:07:01;;;;;;;11.45;7.82;;;;;;;-146.52;100.00;63329.72;1017396;29;20112;-80
2021/07/02 05:07:32;;;;;;;10.73;7.57;;;;;;;-146.52;100.00;63329.72;1013294;29;20546;-81
2021/07/02 05:08:02;;;;;;;11.93;7.95;;;;;;;-146.52;100.00;63329.72;1006313;29;20029;-81
2021/07/02 05:08:33;;;;;;;12.25;8.43;;;;;;;-146.52;100.00;63329.72;1018752;29;20123;-81